Terminal Aerodrome Forecast
Issued by NWS Binghamton, NY

Home | Current Version | Previous Version | Text Only | Print | Product List | Glossary On
Versions: 1 2 3 4 5 6 7 8 9 10 11 12 13 14 15 16 17
279
FTUS41 KBGM 181026 AAA
TAFSYR
TAF AMD
KSYR 181026Z 1810/1906 20006KT P6SM SCT035 BKN150
      TEMPO 1811/1815 SCT025 BKN035
     FM181500 24010KT P6SM BKN035 BKN100
     FM182000 25008KT P6SM SCT040 BKN150 PROB30 1820/1824 5SM -TSRA
      BKN040CB
     FM190300 26007KT P6SM BKN050=

USA.gov is the U.S. government's official web portal to all federal, state and local government web resources and services.